Time;durP1;ratioP1;P1;durP2;ratioP2;P2;SDS_P1;SDS_P2;PMS_P1;PMS_P2;Temp;Humidity;BMP_temperature;BMP_pressure;BME280_temperature;BME280_humidity;BME280_pressure;Samples;Min_cycle;Max_cycle;Signal;HPM_P1;HPM_P2
2021/09/11 00:01:05;;;;;;;;;5.80;5.80;;;;;;;;4962492;28;9641;-87
2021/09/11 00:03:33;;;;;;;;;7.60;6.20;;;;;;;;4962405;28;8905;-82
2021/09/11 00:06:01;;;;;;;;;4.80;4.40;;;;;;;;4969442;28;8986;-86
2021/09/11 00:08:28;;;;;;;;;7.80;7.80;;;;;;;;4966160;28;9020;-82
2021/09/11 00:10:55;;;;;;;;;5.60;5.60;;;;;;;;4966989;28;8896;-79
2021/09/11 00:13:24;;;;;;;;;9.00;9.00;;;;;;;;4963656;28;8925;-78
2021/09/11 00:15:51;;;;;;;;;8.40;8.40;;;;;;;;4970295;28;8986;-76
2021/09/11 00:18:19;;;;;;;;;6.20;6.20;;;;;;;;4967640;28;8984;-85
2021/09/11 00:20:46;;;;;;;;;10.80;9.20;;;;;;;;4967455;28;8881;-82
2021/09/11 00:23:14;;;;;;;;;10.60;9.60;;;;;;;;4964089;28;8911;-84
2021/09/11 00:25:41;;;;;;;;;8.80;8.80;;;;;;;;4965788;28;8887;-84
2021/09/11 00:28:08;;;;;;;;;14.50;12.50;;;;;;;;4966733;28;8882;-82
2021/09/11 00:30:37;;;;;;;;;13.00;13.00;;;;;;;;4963993;28;8829;-80
2021/09/11 00:33:04;;;;;;;;;16.00;14.00;;;;;;;;4965680;28;9639;-83
2021/09/11 00:35:32;;;;;;;;;16.00;15.75;;;;;;;;4965112;28;10177;-78
2021/09/11 00:37:59;;;;;;;;;13.75;11.75;;;;;;;;4965532;28;8881;-82
2021/09/11 00:40:26;;;;;;;;;15.75;15.75;;;;;;;;4966154;28;8884;-84
2021/09/11 00:42:54;;;;;;;;;15.75;14.00;;;;;;;;4965480;28;8882;-84
2021/09/11 00:45:22;;;;;;;;;14.00;14.00;;;;;;;;4967795;28;8865;-83
2021/09/11 00:47:51;;;;;;;;;14.50;13.00;;;;;;;;4965512;28;9760;-84
2021/09/11 00:50:19;;;;;;;;;10.00;10.00;;;;;;;;4963945;28;8876;-82
2021/09/11 00:52:48;;;;;;;;;11.00;11.00;;;;;;;;4965515;28;8865;-82
2021/09/11 00:55:15;;;;;;;;;12.50;12.50;;;;;;;;4964431;28;8905;-83
2021/09/11 00:57:49;;;;;;;;;11.75;11.75;;;;;;;;4967439;28;8996;-84
2021/09/11 01:00:17;;;;;;;;;10.00;10.00;;;;;;;;4962012;28;8857;-84
2021/09/11 01:02:44;;;;;;;;;10.50;10.50;;;;;;;;4965231;28;8893;-87
2021/09/11 01:05:14;;;;;;;;;11.00;11.00;;;;;;;;4965161;28;8893;-83
2021/09/11 01:07:43;;;;;;;;;14.25;11.25;;;;;;;;4966922;28;8904;-81
2021/09/11 01:10:11;;;;;;;;;11.75;11.75;;;;;;;;4961816;28;8900;-81
2021/09/11 01:12:38;;;;;;;;;9.50;9.50;;;;;;;;4966420;28;8963;-85
2021/09/11 01:15:07;;;;;;;;;9.50;9.50;;;;;;;;4966121;28;8969;-79
2021/09/11 01:17:35;;;;;;;;;11.00;9.50;;;;;;;;4965468;28;8849;-81
2021/09/11 01:20:03;;;;;;;;;13.25;13.25;;;;;;;;4965835;28;9658;-81
2021/09/11 01:22:31;;;;;;;;;12.75;11.25;;;;;;;;4965656;28;8998;-83
2021/09/11 01:25:02;;;;;;;;;13.50;11.00;;;;;;;;4966159;28;8901;-82
2021/09/11 01:27:31;;;;;;;;;11.75;11.75;;;;;;;;4962416;28;9045;-85
2021/09/11 01:30:00;;;;;;;;;9.00;9.00;;;;;;;;4965289;28;8893;-81
2021/09/11 01:32:30;;;;;;;;;11.50;9.50;;;;;;;;4964735;28;8952;-81
2021/09/11 01:34:57;;;;;;;;;10.50;9.00;;;;;;;;4965171;28;8884;-81
2021/09/11 01:37:25;;;;;;;;;13.25;13.25;;;;;;;;4965329;28;8869;-82
2021/09/11 01:39:52;;;;;;;;;9.50;9.50;;;;;;;;4964789;28;9006;-82
2021/09/11 01:42:22;;;;;;;;;9.75;8.00;;;;;;;;4965073;28;8873;-83
2021/09/11 01:44:51;;;;;;;;;14.25;11.75;;;;;;;;4963731;28;8873;-84
2021/09/11 01:47:19;;;;;;;;;7.75;7.75;;;;;;;;4960959;28;8906;-83
2021/09/11 01:49:46;;;;;;;;;10.00;10.00;;;;;;;;4963068;28;9024;-82
2021/09/11 01:52:13;;;;;;;;;9.50;9.00;;;;;;;;4964313;28;8888;-81
2021/09/11 01:54:42;;;;;;;;;9.00;9.00;;;;;;;;4966349;28;8883;-82
2021/09/11 01:57:10;;;;;;;;;9.75;9.75;;;;;;;;4963444;28;8896;-81
2021/09/11 01:59:39;;;;;;;;;11.00;9.00;;;;;;;;4964656;28;8885;-80
2021/09/11 02:02:07;;;;;;;;;11.00;11.00;;;;;;;;4962562;28;10340;-80
2021/09/11 02:04:35;;;;;;;;;7.75;6.75;;;;;;;;4969517;28;8883;-82
2021/09/11 02:07:03;;;;;;;;;7.50;7.50;;;;;;;;4967935;28;9698;-81
2021/09/11 02:09:31;;;;;;;;;6.75;6.75;;;;;;;;4964666;28;8940;-81
2021/09/11 02:11:59;;;;;;;;;8.00;6.75;;;;;;;;4965584;28;8853;-82
2021/09/11 02:14:26;;;;;;;;;6.25;6.25;;;;;;;;4969293;28;8909;-81
2021/09/11 02:16:55;;;;;;;;;6.00;6.00;;;;;;;;4963529;28;8881;-84
2021/09/11 02:19:22;;;;;;;;;9.00;7.00;;;;;;;;4963900;28;8899;-82
2021/09/11 02:21:49;;;;;;;;;7.75;7.75;;;;;;;;4961746;28;8950;-80
2021/09/11 02:24:17;;;;;;;;;7.25;7.25;;;;;;;;4960800;28;8857;-77
2021/09/11 02:26:44;;;;;;;;;8.25;8.25;;;;;;;;4962688;28;8908;-79
2021/09/11 02:29:11;;;;;;;;;11.25;9.50;;;;;;;;4963169;28;8846;-79
2021/09/11 02:31:39;;;;;;;;;7.50;7.50;;;;;;;;4960356;28;8873;-79
2021/09/11 02:34:07;;;;;;;;;4.50;4.50;;;;;;;;4962694;28;8893;-80
2021/09/11 02:36:35;;;;;;;;;7.00;7.00;;;;;;;;4960814;28;8870;-82
2021/09/11 02:39:02;;;;;;;;;8.00;6.75;;;;;;;;4963260;28;8869;-79
2021/09/11 02:41:29;;;;;;;;;9.00;8.25;;;;;;;;4963019;28;8893;-81
2021/09/11 02:43:57;;;;;;;;;8.75;7.00;;;;;;;;4965528;28;8877;-79
2021/09/11 02:46:24;;;;;;;;;8.00;6.50;;;;;;;;4963731;28;8891;-82
2021/09/11 02:48:51;;;;;;;;;5.00;5.00;;;;;;;;4962915;28;8889;-79
2021/09/11 02:51:20;;;;;;;;;6.00;6.00;;;;;;;;4964006;28;8883;-81
2021/09/11 02:53:48;;;;;;;;;6.00;6.00;;;;;;;;4962664;28;8869;-85
2021/09/11 02:56:17;;;;;;;;;7.50;6.00;;;;;;;;4964283;28;8897;-77
2021/09/11 02:58:44;;;;;;;;;9.50;7.00;;;;;;;;4962281;28;8877;-77
2021/09/11 03:01:12;;;;;;;;;7.50;7.50;;;;;;;;4963162;28;8841;-77
2021/09/11 03:03:39;;;;;;;;;4.50;3.50;;;;;;;;4963900;28;8988;-79
2021/09/11 03:06:07;;;;;;;;;8.50;6.75;;;;;;;;4961323;28;8870;-80
2021/09/11 03:08:36;;;;;;;;;7.00;5.25;;;;;;;;4963550;28;8923;-80
2021/09/11 03:11:03;;;;;;;;;6.50;5.25;;;;;;;;4960087;28;8873;-80
2021/09/11 03:13:31;;;;;;;;;9.25;4.00;;;;;;;;4963904;28;8889;-80
2021/09/11 03:15:58;;;;;;;;;5.00;5.00;;;;;;;;4960871;28;8879;-81
2021/09/11 03:18:25;;;;;;;;;8.00;5.25;;;;;;;;4963720;28;8984;-79
2021/09/11 03:20:53;;;;;;;;;7.00;5.00;;;;;;;;4963522;28;8897;-80
2021/09/11 03:23:20;;;;;;;;;6.00;5.00;;;;;;;;4962456;28;8880;-87
2021/09/11 03:25:49;;;;;;;;;5.00;5.00;;;;;;;;4963881;28;8857;-79
2021/09/11 03:28:17;;;;;;;;;6.50;5.00;;;;;;;;4958095;28;8883;-80
2021/09/11 03:30:44;;;;;;;;;6.25;4.50;;;;;;;;4962313;28;8849;-80
2021/09/11 03:33:11;;;;;;;;;6.75;5.25;;;;;;;;4963153;28;8881;-80
2021/09/11 03:35:51;;;;;;;;;7.25;6.00;;;;;;;;4963061;28;9019;-79
2021/09/11 03:38:18;;;;;;;;;4.00;3.75;;;;;;;;4963145;28;8870;-80
2021/09/11 03:40:45;;;;;;;;;5.50;5.50;;;;;;;;4965262;28;8920;-81
2021/09/11 03:43:14;;;;;;;;;4.00;4.00;;;;;;;;4961494;28;10130;-79
2021/09/11 03:45:42;;;;;;;;;5.25;4.00;;;;;;;;4963950;28;8889;-80
2021/09/11 03:48:09;;;;;;;;;5.00;4.75;;;;;;;;4967971;28;9663;-83
2021/09/11 03:50:36;;;;;;;;;6.00;6.00;;;;;;;;4965336;28;9601;-80
2021/09/11 03:53:04;;;;;;;;;8.25;7.00;;;;;;;;4967619;28;8870;-83
2021/09/11 03:55:31;;;;;;;;;5.25;5.25;;;;;;;;4966717;28;8850;-78
2021/09/11 03:57:58;;;;;;;;;4.50;4.50;;;;;;;;4964839;28;8881;-79
2021/09/11 04:00:27;;;;;;;;;5.50;5.50;;;;;;;;4965711;28;9549;-80
2021/09/11 04:02:54;;;;;;;;;5.75;5.75;;;;;;;;4964677;28;8899;-79
2021/09/11 04:05:22;;;;;;;;;7.00;6.00;;;;;;;;4967280;28;8927;-78
2021/09/11 04:07:49;;;;;;;;;6.25;4.75;;;;;;;;4965011;28;8893;-81
2021/09/11 04:10:17;;;;;;;;;4.75;4.25;;;;;;;;4966104;28;9059;-79
2021/09/11 04:12:44;;;;;;;;;7.50;6.25;;;;;;;;4963944;28;8872;-81
2021/09/11 04:15:11;;;;;;;;;7.75;6.00;;;;;;;;4966107;28;8873;-79
2021/09/11 04:17:41;;;;;;;;;8.00;7.00;;;;;;;;4967077;28;8900;-80
2021/09/11 04:20:09;;;;;;;;;6.25;6.25;;;;;;;;4963877;28;8874;-80
2021/09/11 04:22:37;;;;;;;;;5.25;5.25;;;;;;;;4964963;28;8891;-79
2021/09/11 04:25:05;;;;;;;;;7.75;4.50;;;;;;;;4966850;28;8927;-78
2021/09/11 04:27:32;;;;;;;;;5.75;5.75;;;;;;;;4967546;28;8895;-81
2021/09/11 04:30:00;;;;;;;;;5.25;5.25;;;;;;;;4966495;28;8913;-77
2021/09/11 04:32:27;;;;;;;;;6.50;5.75;;;;;;;;4965725;28;8854;-83
2021/09/11 04:34:56;;;;;;;;;9.00;7.75;;;;;;;;4966187;28;8869;-78
2021/09/11 04:37:23;;;;;;;;;7.25;7.25;;;;;;;;4965585;28;8861;-83
2021/09/11 04:39:51;;;;;;;;;9.50;7.50;;;;;;;;4968350;28;8972;-83
2021/09/11 04:42:18;;;;;;;;;8.25;6.00;;;;;;;;4965286;28;8934;-78
2021/09/11 04:44:45;;;;;;;;;7.00;6.75;;;;;;;;4966981;28;8878;-77
2021/09/11 04:47:13;;;;;;;;;6.50;6.50;;;;;;;;4964240;28;9717;-78
2021/09/11 04:49:40;;;;;;;;;4.75;4.25;;;;;;;;4965536;28;8870;-77
2021/09/11 04:52:09;;;;;;;;;8.25;8.25;;;;;;;;4963915;28;8889;-79
2021/09/11 04:54:36;;;;;;;;;5.00;5.00;;;;;;;;4964990;28;8874;-82
2021/09/11 04:57:04;;;;;;;;;9.75;6.25;;;;;;;;4965081;28;8888;-79
2021/09/11 04:59:31;;;;;;;;;7.25;6.75;;;;;;;;4964033;28;8862;-80
2021/09/11 05:01:58;;;;;;;;;6.75;6.75;;;;;;;;4964469;28;8844;-80
2021/09/11 05:04:26;;;;;;;;;3.75;3.75;;;;;;;;4961749;28;8857;-77
2021/09/11 05:06:53;;;;;;;;;10.75;7.50;;;;;;;;4965055;28;8858;-80
2021/09/11 05:09:23;;;;;;;;;5.25;5.25;;;;;;;;4963415;28;8898;-77
2021/09/11 05:11:51;;;;;;;;;5.50;5.50;;;;;;;;4960929;28;8877;-77
2021/09/11 05:14:18;;;;;;;;;5.50;5.50;;;;;;;;4967392;28;8885;-75
2021/09/11 05:16:45;;;;;;;;;6.25;6.25;;;;;;;;4963391;28;8887;-75
2021/09/11 05:19:13;;;;;;;;;4.25;4.25;;;;;;;;4965422;28;9004;-77
2021/09/11 05:21:40;;;;;;;;;4.00;4.00;;;;;;;;4964714;28;8898;-82
2021/09/11 05:24:07;;;;;;;;;5.25;5.25;;;;;;;;4966070;28;8889;-81
2021/09/11 05:26:36;;;;;;;;;5.50;5.50;;;;;;;;4965795;28;8882;-79
2021/09/11 05:29:04;;;;;;;;;6.25;5.00;;;;;;;;4965766;28;8903;-80
2021/09/11 05:31:31;;;;;;;;;5.00;4.50;;;;;;;;4965669;28;8940;-85
2021/09/11 05:33:59;;;;;;;;;6.75;6.75;;;;;;;;4966010;28;8975;-80
2021/09/11 05:36:27;;;;;;;;;4.75;4.75;;;;;;;;4961581;28;8988;-82
2021/09/11 05:38:54;;;;;;;;;7.00;5.00;;;;;;;;4956667;28;8913;-81
2021/09/11 05:41:22;;;;;;;;;5.50;5.50;;;;;;;;4962191;28;9684;-80
2021/09/11 05:43:51;;;;;;;;;4.75;4.75;;;;;;;;4964814;28;8873;-80
2021/09/11 05:46:30;;;;;;;;;6.75;6.75;;;;;;;;4966083;28;8911;-82
2021/09/11 05:48:57;;;;;;;;;5.50;5.50;;;;;;;;4965388;28;8861;-80
2021/09/11 05:51:25;;;;;;;;;5.50;4.25;;;;;;;;4965676;28;8976;-80
2021/09/11 05:53:53;;;;;;;;;10.00;7.25;;;;;;;;4964227;28;8884;-79
2021/09/11 05:56:21;;;;;;;;;7.25;5.50;;;;;;;;4964322;28;9687;-80
2021/09/11 05:58:50;;;;;;;;;6.25;5.00;;;;;;;;4961071;28;8893;-82
2021/09/11 06:01:18;;;;;;;;;6.00;5.75;;;;;;;;4961835;28;8802;-79
2021/09/11 06:03:45;;;;;;;;;4.75;4.75;;;;;;;;4963967;28;8885;-78
2021/09/11 06:06:12;;;;;;;;;11.00;7.00;;;;;;;;4964628;28;8904;-79
2021/09/11 06:08:40;;;;;;;;;5.00;5.00;;;;;;;;4961917;28;8956;-76
2021/09/11 06:11:08;;;;;;;;;7.25;5.75;;;;;;;;4962790;28;8865;-76
2021/09/11 06:13:35;;;;;;;;;5.00;5.00;;;;;;;;4961166;28;8842;-78
2021/09/11 06:16:05;;;;;;;;;4.75;4.75;;;;;;;;4964221;28;8865;-76
2021/09/11 06:18:33;;;;;;;;;6.75;6.75;;;;;;;;4962041;28;8881;-76
2021/09/11 06:21:00;;;;;;;;;6.25;5.00;;;;;;;;4964098;28;8873;-75
2021/09/11 06:23:28;;;;;;;;;5.50;5.25;;;;;;;;4961400;28;8883;-75
2021/09/11 06:25:55;;;;;;;;;5.50;5.50;;;;;;;;4962822;28;8877;-73
2021/09/11 06:28:24;;;;;;;;;5.00;5.00;;;;;;;;4961867;28;8873;-72
2021/09/11 06:30:51;;;;;;;;;5.50;5.50;;;;;;;;4961868;28;8860;-73
2021/09/11 06:33:20;;;;;;;;;5.25;5.25;;;;;;;;4963016;28;8857;-73
2021/09/11 06:35:47;;;;;;;;;4.00;4.00;;;;;;;;4961996;28;8881;-74
2021/09/11 06:38:15;;;;;;;;;4.50;4.50;;;;;;;;4964553;28;8931;-73
2021/09/11 06:40:42;;;;;;;;;6.25;6.25;;;;;;;;4961808;28;8990;-73
2021/09/11 06:43:10;;;;;;;;;11.25;11.25;;;;;;;;4962058;28;8907;-73
2021/09/11 06:45:37;;;;;;;;;10.00;8.00;;;;;;;;4961691;28;8928;-74
2021/09/11 06:48:04;;;;;;;;;4.75;4.75;;;;;;;;4961696;28;8923;-73
2021/09/11 06:50:33;;;;;;;;;8.75;6.50;;;;;;;;4962793;28;8879;-74
2021/09/11 06:53:01;;;;;;;;;4.00;4.00;;;;;;;;4961792;28;8849;-74
2021/09/11 06:55:28;;;;;;;;;6.75;6.00;;;;;;;;4964215;28;9028;-74
2021/09/11 06:57:56;;;;;;;;;4.00;4.00;;;;;;;;4962230;28;8877;-74
2021/09/11 07:00:23;;;;;;;;;5.25;5.25;;;;;;;;4963757;28;10025;-74
2021/09/11 07:02:50;;;;;;;;;6.25;6.00;;;;;;;;4962913;28;8881;-74
2021/09/11 07:05:18;;;;;;;;;5.00;5.00;;;;;;;;4964012;28;9546;-77
2021/09/11 07:07:46;;;;;;;;;4.50;4.50;;;;;;;;4962955;28;8869;-75
2021/09/11 07:10:14;;;;;;;;;6.50;5.00;;;;;;;;4960676;28;9660;-76
2021/09/11 07:12:41;;;;;;;;;4.50;4.50;;;;;;;;4961461;28;8893;-76
2021/09/11 07:15:09;;;;;;;;;6.75;4.50;;;;;;;;4961635;28;8912;-77
2021/09/11 07:17:36;;;;;;;;;4.25;4.25;;;;;;;;4961363;28;8874;-77
2021/09/11 07:20:04;;;;;;;;;5.00;5.00;;;;;;;;4958754;28;8900;-80
2021/09/11 07:22:31;;;;;;;;;8.50;5.50;;;;;;;;4963677;28;9632;-85
2021/09/11 07:25:00;;;;;;;;;5.25;4.50;;;;;;;;4958781;28;8864;-77
2021/09/11 07:27:29;;;;;;;;;7.25;5.25;;;;;;;;4963037;28;8972;-76
2021/09/11 07:29:58;;;;;;;;;4.75;4.25;;;;;;;;4962492;28;8853;-76
2021/09/11 07:32:26;;;;;;;;;8.75;6.00;;;;;;;;4959449;28;8826;-79
2021/09/11 07:34:53;;;;;;;;;4.75;4.75;;;;;;;;4964822;28;8873;-77
2021/09/11 07:37:20;;;;;;;;;4.00;4.00;;;;;;;;4964809;28;9008;-77
2021/09/11 07:39:48;;;;;;;;;6.50;5.75;;;;;;;;4976456;28;8882;-77
2021/09/11 07:42:18;;;;;;;;;8.00;6.50;;;;;;;;4964184;28;8985;-79
2021/09/11 07:44:46;;;;;;;;;4.75;4.75;;;;;;;;4964656;28;8877;-80
2021/09/11 07:47:14;;;;;;;;;4.75;4.00;;;;;;;;4964057;28;8866;-79
2021/09/11 07:49:42;;;;;;;;;7.75;7.75;;;;;;;;4964367;28;8870;-75
2021/09/11 07:52:09;;;;;;;;;8.50;6.00;;;;;;;;4965305;28;8912;-79
2021/09/11 07:54:39;;;;;;;;;5.50;5.50;;;;;;;;4963583;28;8877;-79
2021/09/11 07:57:07;;;;;;;;;4.75;4.75;;;;;;;;4965835;28;8881;-77
2021/09/11 07:59:36;;;;;;;;;5.00;5.00;;;;;;;;4955958;28;8901;-78
2021/09/11 08:02:03;;;;;;;;;5.25;5.25;;;;;;;;4964503;28;8834;-77
2021/09/11 08:04:30;;;;;;;;;7.75;7.75;;;;;;;;4965091;28;8895;-85
2021/09/11 08:06:58;;;;;;;;;6.50;6.50;;;;;;;;4964904;28;8959;-77
2021/09/11 08:09:25;;;;;;;;;6.50;5.25;;;;;;;;4964164;28;8862;-76
2021/09/11 08:11:52;;;;;;;;;9.00;6.25;;;;;;;;4963711;28;8878;-76
2021/09/11 08:14:19;;;;;;;;;8.75;7.75;;;;;;;;4971588;28;8935;-77
2021/09/11 08:16:48;;;;;;;;;6.00;6.00;;;;;;;;4965166;28;8928;-79
2021/09/11 08:19:15;;;;;;;;;7.00;7.00;;;;;;;;4964605;28;9011;-78
2021/09/11 08:21:43;;;;;;;;;5.25;5.25;;;;;;;;4963200;28;8866;-77
2021/09/11 08:24:10;;;;;;;;;6.75;6.75;;;;;;;;4963068;28;8913;-83
2021/09/11 08:26:37;;;;;;;;;6.00;6.00;;;;;;;;4968738;28;8865;-77
2021/09/11 08:29:06;;;;;;;;;8.75;8.75;;;;;;;;4966155;28;9679;-79
2021/09/11 08:31:33;;;;;;;;;10.75;9.00;;;;;;;;4967628;28;8866;-77
2021/09/11 08:34:02;;;;;;;;;10.75;7.50;;;;;;;;4967521;28;8915;-78
2021/09/11 08:36:29;;;;;;;;;6.75;6.75;;;;;;;;4968519;28;8881;-78
2021/09/11 08:38:56;;;;;;;;;9.00;9.00;;;;;;;;4972597;28;8994;-78
2021/09/11 08:41:27;;;;;;;;;9.25;7.25;;;;;;;;4955407;28;8889;-83
2021/09/11 08:43:55;;;;;;;;;11.25;9.75;;;;;;;;4967131;28;9672;-76
2021/09/11 08:46:23;;;;;;;;;8.20;8.20;;;;;;;;4967717;28;8896;-79
2021/09/11 08:48:50;;;;;;;;;9.00;9.00;;;;;;;;4968511;28;8885;-77
2021/09/11 08:51:19;;;;;;;;;9.40;7.80;;;;;;;;4968006;28;8922;-76
2021/09/11 08:53:46;;;;;;;;;8.50;8.50;;;;;;;;4966752;28;9780;-76
2021/09/11 08:56:14;;;;;;;;;5.80;4.60;;;;;;;;4967567;28;8865;-77
2021/09/11 08:58:41;;;;;;;;;8.20;7.00;;;;;;;;4967379;28;8881;-79
2021/09/11 09:01:09;;;;;;;;;4.60;3.00;;;;;;;;4967230;28;8802;-78
2021/09/11 09:03:39;;;;;;;;;8.20;8.00;;;;;;;;4967443;28;8921;-78
2021/09/11 09:06:22;;;;;;;;;7.80;6.20;;;;;;;;4968366;28;8869;-79
2021/09/11 09:08:51;;;;;;;;;6.60;6.60;;;;;;;;4967080;28;8963;-78
2021/09/11 09:11:23;;;;;;;;;4.60;4.00;;;;;;;;4968263;28;8877;-78
2021/09/11 09:13:52;;;;;;;;;8.20;6.00;;;;;;;;4969283;28;8879;-77
2021/09/11 09:16:20;;;;;;;;;6.60;6.60;;;;;;;;4973509;28;8873;-78
2021/09/11 09:18:47;;;;;;;;;5.60;5.60;;;;;;;;4967967;28;8939;-78
2021/09/11 09:21:21;;;;;;;;;9.00;8.40;;;;;;;;4966124;28;8984;-77
2021/09/11 09:23:50;;;;;;;;;4.80;4.80;;;;;;;;4967521;28;9064;-77
2021/09/11 09:26:17;;;;;;;;;7.60;6.40;;;;;;;;4966310;28;8889;-78
2021/09/11 09:29:00;;;;;;;;;3.80;3.80;;;;;;;;4964746;28;8924;-78
2021/09/11 09:31:27;;;;;;;;;4.00;4.00;;;;;;;;4965639;28;8834;-77
2021/09/11 09:33:54;;;;;;;;;7.40;4.60;;;;;;;;4965278;28;8877;-78
2021/09/11 09:36:23;;;;;;;;;3.00;3.00;;;;;;;;4963714;28;8896;-78
2021/09/11 09:39:00;;;;;;;;;2.40;2.00;;;;;;;;4970132;28;8925;-78
2021/09/11 09:41:27;;;;;;;;;3.60;2.40;;;;;;;;4965250;28;8870;-75
2021/09/11 09:43:55;;;;;;;;;2.00;2.00;;;;;;;;4964981;28;8998;-76
2021/09/11 09:46:22;;;;;;;;;1.80;1.80;;;;;;;;4965743;28;8975;-77
2021/09/11 09:48:49;;;;;;;;;1.60;1.00;;;;;;;;4959006;28;8864;-76
2021/09/11 09:51:18;;;;;;;;;1.00;1.00;;;;;;;;4962274;28;8927;-77
2021/09/11 09:53:50;;;;;;;;;4.00;2.00;;;;;;;;4966610;28;8881;-76
2021/09/11 09:56:18;;;;;;;;;4.00;2.20;;;;;;;;4965372;28;8869;-77
2021/09/11 09:58:45;;;;;;;;;3.00;3.00;;;;;;;;4966379;28;8942;-76
2021/09/11 10:01:13;;;;;;;;;3.00;3.00;;;;;;;;4965177;28;8856;-78
2021/09/11 10:03:40;;;;;;;;;2.00;2.00;;;;;;;;4965964;28;8917;-76
2021/09/11 10:06:12;;;;;;;;;3.20;2.20;;;;;;;;4965785;28;8849;-76
2021/09/11 10:08:46;;;;;;;;;2.00;2.00;;;;;;;;4965341;28;8873;-77
2021/09/11 10:11:15;;;;;;;;;3.00;3.00;;;;;;;;4966300;28;8873;-77
2021/09/11 10:14:00;;;;;;;;;4.00;2.00;;;;;;;;4966448;28;8885;-76
2021/09/11 10:16:35;;;;;;;;;3.00;3.00;;;;;;;;4972372;28;8891;-77
2021/09/11 10:19:16;;;;;;;;;2.40;2.40;;;;;;;;4966140;28;8916;-78
2021/09/11 10:21:43;;;;;;;;;2.00;2.00;;;;;;;;4965236;28;8904;-77
2021/09/11 10:24:30;;;;;;;;;4.60;2.20;;;;;;;;4966733;28;8873;-76
2021/09/11 10:27:01;;;;;;;;;2.00;2.00;;;;;;;;4964805;28;9732;-76
2021/09/11 10:29:49;;;;;;;;;1.80;1.80;;;;;;;;4956513;28;8891;-76
2021/09/11 10:32:18;;;;;;;;;1.00;1.00;;;;;;;;4952793;28;8921;-75
2021/09/11 10:34:51;;;;;;;;;2.00;2.00;;;;;;;;4964792;28;8889;-76
2021/09/11 10:37:37;;;;;;;;;1.00;1.00;;;;;;;;4965827;28;8924;-76
2021/09/11 10:40:20;;;;;;;;;1.60;0.00;;;;;;;;4971162;28;8901;-76
2021/09/11 10:43:11;;;;;;;;;1.80;1.80;;;;;;;;4961812;28;8996;-77
2021/09/11 10:45:43;;;;;;;;;1.20;1.20;;;;;;;;4966248;28;8869;-77
2021/09/11 10:48:31;;;;;;;;;1.60;1.60;;;;;;;;4963860;28;8886;-79
2021/09/11 10:51:04;;;;;;;;;1.80;1.80;;;;;;;;4965692;28;8899;-77
2021/09/11 10:53:31;;;;;;;;;0.60;0.60;;;;;;;;4963554;28;8869;-76
2021/09/11 10:56:25;;;;;;;;;1.40;1.00;;;;;;;;4964101;28;9703;-76
2021/09/11 10:59:24;;;;;;;;;1.40;0.00;;;;;;;;4965682;28;8865;-75
2021/09/11 11:02:13;;;;;;;;;1.00;1.00;;;;;;;;4949887;28;8833;-77
2021/09/11 11:04:51;;;;;;;;;0.40;0.40;;;;;;;;4965288;28;8894;-76
2021/09/11 11:07:22;;;;;;;;;0.80;0.80;;;;;;;;4964384;28;9006;-75
2021/09/11 11:09:52;;;;;;;;;0.60;0.60;;;;;;;;4964362;28;9618;-75
2021/09/11 11:12:23;;;;;;;;;0.80;0.80;;;;;;;;4964471;28;8888;-76
2021/09/11 11:14:51;;;;;;;;;1.40;1.40;;;;;;;;4963779;28;8897;-75
2021/09/11 11:17:20;;;;;;;;;0.20;0.20;;;;;;;;4963306;28;8889;-75
2021/09/11 11:19:50;;;;;;;;;0.00;0.00;;;;;;;;4962844;28;8891;-75
2021/09/11 11:22:19;;;;;;;;;0.20;0.20;;;;;;;;4963689;28;8877;-75
2021/09/11 11:24:48;;;;;;;;;1.00;1.00;;;;;;;;4964643;28;8884;-75
2021/09/11 11:27:20;;;;;;;;;0.40;0.40;;;;;;;;4963718;28;9017;-76
2021/09/11 11:29:50;;;;;;;;;0.80;0.80;;;;;;;;4964211;28;9397;-76
2021/09/11 11:32:21;;;;;;;;;0.20;0.20;;;;;;;;4958192;28;8834;-80
2021/09/11 11:34:54;;;;;;;;;1.00;1.00;;;;;;;;4958515;28;8874;-74
2021/09/11 11:37:23;;;;;;;;;0.80;0.80;;;;;;;;4958157;28;9024;-78
2021/09/11 11:39:51;;;;;;;;;0.60;0.60;;;;;;;;4964964;28;8873;-76
2021/09/11 11:42:23;;;;;;;;;0.80;0.80;;;;;;;;4961426;28;8873;-75
2021/09/11 11:44:51;;;;;;;;;1.00;1.00;;;;;;;;4959848;28;8915;-77
2021/09/11 11:47:56;;;;;;;;;0.40;0.40;;;;;;;;4962121;28;8889;-76
2021/09/11 11:50:27;;;;;;;;;2.80;1.20;;;;;;;;4962282;28;8885;-78
2021/09/11 11:52:57;;;;;;;;;0.60;0.60;;;;;;;;4961791;28;8889;-77
2021/09/11 11:55:25;;;;;;;;;4.40;1.20;;;;;;;;4960771;28;9670;-77
2021/09/11 11:57:53;;;;;;;;;2.00;0.80;;;;;;;;4960370;28;8857;-79
2021/09/11 12:00:20;;;;;;;;;1.00;1.00;;;;;;;;4964825;28;8901;-78
2021/09/11 12:02:49;;;;;;;;;0.00;0.00;;;;;;;;4964629;28;8877;-79
2021/09/11 12:05:24;;;;;;;;;0.00;0.00;;;;;;;;4966102;28;8885;-76
2021/09/11 12:07:57;;;;;;;;;1.20;0.60;;;;;;;;4963836;28;8846;-79
2021/09/11 12:10:26;;;;;;;;;0.00;0.00;;;;;;;;4965471;28;8884;-77
2021/09/11 12:12:55;;;;;;;;;0.40;0.40;;;;;;;;4965695;28;8968;-75
2021/09/11 12:15:24;;;;;;;;;0.60;0.60;;;;;;;;4964425;28;8944;-75
2021/09/11 12:18:03;;;;;;;;;0.60;0.60;;;;;;;;4966444;28;8869;-76
2021/09/11 12:20:32;;;;;;;;;0.00;0.00;;;;;;;;4966733;28;8886;-78
2021/09/11 12:23:05;;;;;;;;;0.40;0.40;;;;;;;;4966489;28;8897;-74
2021/09/11 12:25:47;;;;;;;;;1.00;1.00;;;;;;;;4964801;28;9630;-77
2021/09/11 12:28:44;;;;;;;;;0.40;0.40;;;;;;;;4963744;28;8875;-76
2021/09/11 12:31:29;;;;;;;;;0.00;0.00;;;;;;;;4967001;28;8829;-77
2021/09/11 12:33:59;;;;;;;;;0.00;0.00;;;;;;;;4964768;28;8896;-78
2021/09/11 12:36:35;;;;;;;;;1.00;1.00;;;;;;;;4965500;28;8866;-75
2021/09/11 12:39:06;;;;;;;;;0.00;0.00;;;;;;;;4969410;28;8892;-72
2021/09/11 12:41:34;;;;;;;;;0.60;0.60;;;;;;;;4966576;28;8883;-77
2021/09/11 12:44:02;;;;;;;;;0.00;0.00;;;;;;;;4966248;28;8889;-74
2021/09/11 12:46:39;;;;;;;;;1.00;1.00;;;;;;;;4957757;28;8874;-76
2021/09/11 12:49:10;;;;;;;;;0.80;0.80;;;;;;;;4963206;28;9019;-75
2021/09/11 12:51:39;;;;;;;;;0.40;0.40;;;;;;;;4964266;28;9001;-77
2021/09/11 12:54:07;;;;;;;;;0.00;0.00;;;;;;;;4963576;28;8905;-76
2021/09/11 12:56:34;;;;;;;;;0.20;0.20;;;;;;;;4965392;28;9354;-75
2021/09/11 12:59:02;;;;;;;;;0.00;0.00;;;;;;;;4960905;28;8896;-74
2021/09/11 13:01:33;;;;;;;;;2.00;0.80;;;;;;;;4957023;28;8840;-74
2021/09/11 13:04:00;;;;;;;;;2.00;0.60;;;;;;;;4959548;28;8893;-74
2021/09/11 13:06:29;;;;;;;;;1.00;1.00;;;;;;;;4966861;28;8885;-73
2021/09/11 13:08:57;;;;;;;;;0.40;0.40;;;;;;;;4957681;28;8886;-75
2021/09/11 13:11:25;;;;;;;;;0.20;0.20;;;;;;;;4965882;28;8905;-74
2021/09/11 13:13:52;;;;;;;;;0.00;0.00;;;;;;;;4969468;28;8998;-74
2021/09/11 13:16:20;;;;;;;;;1.40;1.00;;;;;;;;4971975;28;8881;-74
2021/09/11 13:18:48;;;;;;;;;0.00;0.00;;;;;;;;4965848;28;8881;-75
2021/09/11 13:21:17;;;;;;;;;0.00;0.00;;;;;;;;4966128;28;8900;-75
2021/09/11 13:23:47;;;;;;;;;0.20;0.20;;;;;;;;4966933;28;8982;-74
2021/09/11 13:26:16;;;;;;;;;0.00;0.00;;;;;;;;4958275;28;8870;-74
2021/09/11 13:28:45;;;;;;;;;0.00;0.00;;;;;;;;4962568;28;8984;-74
2021/09/11 13:31:13;;;;;;;;;0.80;0.80;;;;;;;;4959069;28;8801;-73
2021/09/11 13:33:41;;;;;;;;;0.00;0.00;;;;;;;;4965323;28;8991;-77
2021/09/11 13:36:09;;;;;;;;;0.60;0.60;;;;;;;;4966586;28;9012;-73
2021/09/11 13:38:37;;;;;;;;;2.00;0.80;;;;;;;;4951753;28;8893;-74
2021/09/11 13:41:06;;;;;;;;;0.60;0.60;;;;;;;;4966706;28;8922;-75
2021/09/11 13:43:33;;;;;;;;;0.80;0.80;;;;;;;;4965578;28;8897;-75
2021/09/11 13:46:01;;;;;;;;;1.00;1.00;;;;;;;;4963956;28;8904;-75
2021/09/11 13:48:29;;;;;;;;;1.40;0.60;;;;;;;;4955547;28;8881;-74
2021/09/11 13:50:56;;;;;;;;;0.60;0.60;;;;;;;;4964138;28;8897;-75
2021/09/11 13:53:24;;;;;;;;;2.40;1.20;;;;;;;;4964704;28;9606;-75
2021/09/11 13:55:52;;;;;;;;;0.80;0.80;;;;;;;;4965501;28;8903;-74
2021/09/11 13:58:24;;;;;;;;;0.00;0.00;;;;;;;;4966899;28;9422;-74
2021/09/11 14:00:52;;;;;;;;;0.40;0.40;;;;;;;;4962975;28;8876;-74
2021/09/11 14:03:20;;;;;;;;;1.80;0.00;;;;;;;;4965988;28;8923;-74
2021/09/11 14:05:47;;;;;;;;;0.20;0.20;;;;;;;;4964686;28;8869;-75
2021/09/11 14:08:15;;;;;;;;;1.80;0.40;;;;;;;;4964814;28;9659;-75
2021/09/11 14:10:42;;;;;;;;;0.00;0.00;;;;;;;;4964390;28;8869;-75
2021/09/11 14:13:09;;;;;;;;;0.20;0.00;;;;;;;;4963684;28;8889;-75
2021/09/11 14:15:38;;;;;;;;;0.00;0.00;;;;;;;;4964489;28;8854;-80
2021/09/11 14:18:05;;;;;;;;;1.20;0.00;;;;;;;;4964771;28;8873;-76
2021/09/11 14:20:32;;;;;;;;;1.60;0.60;;;;;;;;4965137;28;9735;-75
2021/09/11 14:23:00;;;;;;;;;2.60;0.60;;;;;;;;4961769;28;8872;-75
2021/09/11 14:25:27;;;;;;;;;0.00;0.00;;;;;;;;4960496;28;8919;-75
2021/09/11 14:27:54;;;;;;;;;0.00;0.00;;;;;;;;4955052;28;8877;-75
2021/09/11 14:30:22;;;;;;;;;0.00;0.00;;;;;;;;4963872;28;10721;-77
2021/09/11 14:32:51;;;;;;;;;0.80;0.80;;;;;;;;4964955;28;8883;-74
2021/09/11 14:35:18;;;;;;;;;0.00;0.00;;;;;;;;4962004;28;8901;-73
2021/09/11 14:37:46;;;;;;;;;1.00;1.00;;;;;;;;4965800;28;9608;-75
2021/09/11 14:40:13;;;;;;;;;0.80;0.80;;;;;;;;4972586;28;8888;-74
2021/09/11 14:42:42;;;;;;;;;1.80;0.60;;;;;;;;4965220;28;8885;-74
2021/09/11 14:45:10;;;;;;;;;0.00;0.00;;;;;;;;4963905;28;8877;-74
2021/09/11 14:47:38;;;;;;;;;0.00;0.00;;;;;;;;4960693;28;8869;-74
2021/09/11 14:50:08;;;;;;;;;2.20;0.80;;;;;;;;4964436;28;8887;-78
2021/09/11 14:52:36;;;;;;;;;0.00;0.00;;;;;;;;4962451;28;9436;-77
2021/09/11 14:55:07;;;;;;;;;0.80;0.80;;;;;;;;4965593;28;8954;-76
2021/09/11 14:57:35;;;;;;;;;0.80;0.80;;;;;;;;4963154;28;8877;-77
2021/09/11 15:00:02;;;;;;;;;0.80;0.80;;;;;;;;4964421;28;8908;-77
2021/09/11 15:02:30;;;;;;;;;0.80;0.80;;;;;;;;4962774;28;8883;-78
2021/09/11 15:05:01;;;;;;;;;0.00;0.00;;;;;;;;4963960;28;8874;-77